Terminal Aerodrome Forecast
Issued by NWS Charleston, WV

Current Version | Previous Version | Text Only | Print | Product List | Glossary Off
Versions: 1 2 3 4 5 6 7 8 9 10 11 12 13 14 15 16 17 18 19 20 21 22 23 24 25 26

000
FTUS41 KRLX 261700
TAFCRW
TAF
KCRW 261739Z 2618/2718 25014G31KT P6SM VCTS BKN040CB
     FM261900 28013G28KT 5SM RA BR VCTS BKN035CB
     FM262100 33009G15KT 2SM RA BR BKN008
     FM262300 33007KT 3SM RA BR OVC008
     FM270400 30004KT P6SM OVC008
     FM271200 32007KT P6SM BKN025
     FM271500 32007KT P6SM BKN035=

USA.gov is the U.S. government's official web portal to all federal, state and local government web resources and services.